Time;durP1;ratioP1;P1;durP2;ratioP2;P2;SDS_P1;SDS_P2;PMS_P1;PMS_P2;Temp;Humidity;BMP_temperature;BMP_pressure;BME280_temperature;BME280_humidity;BME280_pressure;Samples;Min_cycle;Max_cycle;Signal;HPM_P1;HPM_P2
2022/07/19 04:02:40;;;;;;;5.53;1.77;;;16.80;96.30;;;;;;5039658;23;20770;-79
2022/07/19 04:05:07;;;;;;;3.80;1.97;;;17.20;96.30;;;;;;4976423;28;20418;-79
2022/07/19 04:07:33;;;;;;;3.27;1.73;;;17.70;96.30;;;;;;4977306;28;20422;-79
2022/07/19 04:09:58;;;;;;;3.40;2.00;;;18.30;96.30;;;;;;4976065;28;20401;-79
2022/07/19 04:12:24;;;;;;;3.37;1.90;;;18.50;96.30;;;;;;4976200;28;20201;-79
2022/07/19 04:14:49;;;;;;;7.10;2.20;;;18.90;96.30;;;;;;4984165;28;20641;-80
2022/07/19 04:17:15;;;;;;;4.57;2.03;;;19.10;96.30;;;;;;4982403;28;20244;-81
2022/07/19 04:19:41;;;;;;;4.57;2.00;;;19.90;93.80;;;;;;4979533;28;20189;-80
2022/07/19 05:13:54;;;;;;;2.87;1.87;;;24.90;79.30;;;;;;4913163;23;20538;-67
2022/07/19 05:16:19;;;;;;;3.40;1.97;;;25.70;77.40;;;;;;4992057;28;20416;-67
2022/07/19 05:18:45;;;;;;;3.60;1.63;;;26.30;75.50;;;;;;4992724;28;20183;-67
2022/07/19 05:21:10;;;;;;;2.60;1.70;;;26.70;74.20;;;;;;5213000;23;20226;-67
2022/07/19 05:23:36;;;;;;;2.20;1.70;;;26.70;74.30;;;;;;4994811;28;20702;-67
2022/07/19 05:26:01;;;;;;;6.53;1.97;;;26.90;74.20;;;;;;4993768;28;20173;-67
2022/07/19 05:28:26;;;;;;;3.20;2.30;;;26.80;73.90;;;;;;4993435;28;20180;-67
2022/07/19 05:33:28;;;;;;;4.70;1.87;;;27.20;74.00;;;;;;5201584;23;20356;-67
2022/07/19 05:35:56;;;;;;;6.50;1.80;;;27.60;73.00;;;;;;4993658;28;20815;-67
2022/07/19 05:38:21;;;;;;;4.10;1.80;;;27.90;72.50;;;;;;4992843;28;20458;-67
2022/07/19 05:40:47;;;;;;;2.57;1.70;;;28.40;71.20;;;;;;5018001;23;20495;-67
2022/07/19 05:43:13;;;;;;;7.80;3.07;;;28.60;70.10;;;;;;4991916;28;20240;-67
2022/07/19 05:45:39;;;;;;;2.80;2.27;;;28.50;70.50;;;;;;4993157;28;20439;-67
2022/07/19 05:48:05;;;;;;;4.50;1.93;;;28.50;71.00;;;;;;4992577;28;20176;-67
2022/07/19 05:55:41;;;;;;;2.83;1.77;;;29.10;69.50;;;;;;5075683;23;20483;-67
2022/07/19 05:58:07;;;;;;;3.90;1.90;;;29.10;69.30;;;;;;4992537;28;20412;-67
2022/07/19 06:10:54;;;;;;;2.10;1.90;;;29.20;69.90;;;;;;5048956;23;20450;-66
2022/07/19 06:13:20;;;;;;;3.30;1.90;;;29.50;69.60;;;;;;4993108;28;20745;-66
2022/07/19 06:15:45;;;;;;;2.27;1.70;;;29.70;69.10;;;;;;4992857;28;20210;-67
2022/07/19 06:18:11;;;;;;;3.10;1.60;;;29.70;69.10;;;;;;4992103;28;20416;-66
2022/07/19 06:23:06;;;;;;;4.87;2.03;;;30.40;68.30;;;;;;4952262;28;20222;-66
2022/07/19 06:25:32;;;;;;;3.73;2.10;;;30.40;68.10;;;;;;4952522;29;20417;-66
2022/07/19 06:27:57;;;;;;;3.77;1.80;;;31.00;67.00;;;;;;4953227;29;20550;-67
2022/07/19 06:30:23;;;;;;;5.80;1.70;;;31.20;66.60;;;;;;4953803;28;20795;-67
2022/07/19 06:32:48;;;;;;;10.83;1.87;;;31.70;65.60;;;;;;4952506;29;20194;-67
2022/07/19 06:35:13;;;;;;;3.53;2.00;;;31.80;65.40;;;;;;4953692;28;20170;-67
2022/07/19 06:37:39;;;;;;;3.97;1.77;;;32.00;65.10;;;;;;4953275;28;20214;-67
2022/07/19 06:40:05;;;;;;;3.43;1.67;;;32.10;65.10;;;;;;4957971;28;20702;-67
2022/07/19 06:42:31;;;;;;;4.50;1.90;;;32.70;65.00;;;;;;4972777;28;20217;-67
2022/07/19 06:44:58;;;;;;;5.25;1.95;;;33.00;64.00;;;;;;4973098;28;20186;-67
2022/07/19 06:47:24;;;;;;;4.95;1.70;;;33.10;64.10;;;;;;4972804;28;20571;-66
2022/07/19 06:49:49;;;;;;;3.97;1.95;;;34.00;62.70;;;;;;4972611;28;20672;-67
2022/07/19 06:52:15;;;;;;;3.40;1.80;;;34.40;60.90;;;;;;4971654;28;20216;-66
2022/07/19 06:54:40;;;;;;;4.57;1.92;;;35.00;60.10;;;;;;4971465;28;20212;-67
2022/07/19 06:57:08;;;;;;;4.90;1.95;;;34.80;60.20;;;;;;4972961;28;20240;-67
2022/07/19 06:59:33;;;;;;;2.65;1.77;;;35.00;60.70;;;;;;4970978;28;20201;-67
2022/07/19 07:01:59;;;;;;;6.60;2.00;;;35.20;59.90;;;;;;4972649;28;20288;-67
2022/07/19 07:04:24;;;;;;;5.40;1.95;;;34.60;60.90;;;;;;4971501;28;20177;-67
2022/07/19 07:06:50;;;;;;;6.38;1.80;;;35.10;59.50;;;;;;4973448;28;20815;-68
2022/07/19 07:09:15;;;;;;;3.20;1.80;;;35.60;60.30;;;;;;4969937;28;20177;-68
2022/07/19 07:11:41;;;;;;;7.97;2.30;;;35.90;58.10;;;;;;4955660;28;20205;-67
2022/07/19 07:14:06;;;;;;;13.10;2.08;;;35.70;59.10;;;;;;4957177;28;20232;-67
2022/07/19 07:16:32;;;;;;;4.43;1.92;;;35.60;58.40;;;;;;4957379;28;20646;-67
2022/07/19 07:18:57;;;;;;;5.85;2.03;;;36.20;58.10;;;;;;4956575;28;20183;-67
2022/07/19 07:21:23;;;;;;;4.95;2.22;;;36.60;57.70;;;;;;4956837;28;20222;-67
2022/07/19 07:23:48;;;;;;;7.30;2.20;;;36.00;58.30;;;;;;4956768;28;20298;-68
2022/07/19 07:26:16;;;;;;;5.57;2.40;;;35.90;58.90;;;;;;4956842;28;20574;-67
2022/07/19 07:28:42;;;;;;;3.55;1.35;;;36.20;60.50;;;;;;4955159;28;20219;-67
2022/07/19 07:31:07;;;;;;;2.10;1.60;;;37.10;53.70;;;;;;4956683;28;20721;-67
2022/07/19 07:33:33;;;;;;;10.63;1.83;;;37.40;51.20;;;;;;4956714;28;20210;-67
2022/07/19 07:35:59;;;;;;;5.82;1.73;;;37.80;51.90;;;;;;4956349;28;20186;-67
2022/07/19 07:38:24;;;;;;;1.30;1.10;;;38.60;54.10;;;;;;4955546;28;20251;-68
2022/07/19 07:40:50;;;;;;;3.58;1.67;;;39.30;50.90;;;;;;4967961;28;20204;-67
2022/07/19 07:43:15;;;;;;;2.38;1.60;;;39.30;49.90;;;;;;4974564;28;20638;-68
2022/07/19 07:45:42;;;;;;;2.78;1.80;;;39.60;48.40;;;;;;4975993;28;20170;-68
2022/07/19 07:48:07;;;;;;;5.30;1.60;;;40.10;49.20;;;;;;4975297;28;20633;-67
2022/07/19 07:50:33;;;;;;;1.75;1.52;;;39.30;50.40;;;;;;4974349;28;20184;-67
2022/07/19 07:52:59;;;;;;;2.75;1.67;;;39.90;48.20;;;;;;4974336;28;20182;-67
2022/07/19 07:55:24;;;;;;;2.05;1.60;;;39.80;48.90;;;;;;4975605;28;20208;-68
2022/07/19 07:57:49;;;;;;;10.20;2.00;;;39.60;46.80;;;;;;4973925;28;20829;-67
2022/07/19 08:00:15;;;;;;;3.35;1.80;;;39.80;49.30;;;;;;4975829;28;20261;-68
2022/07/19 08:02:43;;;;;;;3.90;1.85;;;40.40;47.70;;;;;;4975466;28;20205;-67
2022/07/19 08:05:09;;;;;;;4.32;1.85;;;39.90;45.80;;;;;;4975458;28;20177;-68
2022/07/19 08:07:35;;;;;;;3.35;2.10;;;39.80;47.80;;;;;;4974936;28;20276;-67
2022/07/19 08:10:02;;;;;;;2.60;1.92;;;39.90;47.50;;;;;;4964949;28;20515;-67
2022/07/19 08:12:27;;;;;;;4.80;1.60;;;40.10;47.40;;;;;;4956035;28;20194;-67
2022/07/19 08:14:53;;;;;;;6.43;1.80;;;39.50;47.70;;;;;;4954940;28;20185;-67
2022/07/19 08:17:18;;;;;;;8.88;2.00;;;39.60;46.20;;;;;;4955672;28;20662;-67
2022/07/19 08:19:44;;;;;;;2.80;1.70;;;40.00;47.00;;;;;;4955348;28;20197;-67
2022/07/19 08:22:09;;;;;;;3.75;1.52;;;40.20;47.10;;;;;;4954397;28;20264;-67
2022/07/19 08:24:35;;;;;;;6.95;1.90;;;40.00;45.40;;;;;;4954423;29;20630;-67
2022/07/19 08:27:00;;;;;;;4.07;1.92;;;39.50;46.30;;;;;;4955791;28;20229;-67
2022/07/19 08:29:26;;;;;;;3.70;1.75;;;38.90;49.30;;;;;;4955156;28;20641;-67
2022/07/19 08:31:51;;;;;;;5.13;1.70;;;39.30;46.80;;;;;;4954375;28;20202;-67
2022/07/19 08:34:17;;;;;;;7.72;2.05;;;39.50;48.50;;;;;;4954435;29;20294;-67
2022/07/19 08:36:42;;;;;;;2.40;1.80;;;39.70;46.80;;;;;;4955515;28;20578;-67
2022/07/19 08:39:08;;;;;;;3.08;1.83;;;39.80;45.30;;;;;;4954822;28;20257;-67
2022/07/19 08:41:34;;;;;;;4.53;2.05;;;39.80;44.50;;;;;;4972782;28;20852;-67
2022/07/19 08:44:03;;;;;;;4.65;1.80;;;40.00;47.80;;;;;;4974730;28;20685;-67
2022/07/19 08:46:29;;;;;;;3.90;2.15;;;39.70;43.90;;;;;;4974562;28;20190;-67
2022/07/19 08:48:55;;;;;;;9.50;1.83;;;39.30;43.60;;;;;;4974313;28;20185;-67
2022/07/19 08:51:21;;;;;;;3.85;1.90;;;39.20;43.20;;;;;;4974604;28;20344;-68
2022/07/19 08:53:49;;;;;;;4.07;1.60;;;39.60;49.00;;;;;;4974862;28;20217;-67
2022/07/19 08:58:58;;;;;;;6.55;1.90;;;40.10;49.00;;;;;;4974490;28;20200;-68
2022/07/19 09:01:24;;;;;;;7.60;1.73;;;40.20;48.80;;;;;;4974542;28;20677;-67
2022/07/19 09:04:16;;;;;;;6.00;2.00;;;40.00;45.60;;;;;;4974459;28;20570;-67
2022/07/19 09:06:43;;;;;;;11.82;3.08;;;39.20;47.80;;;;;;4974496;28;20170;-66
2022/07/19 09:09:10;;;;;;;5.22;1.50;;;39.00;46.30;;;;;;4970355;28;20182;-66
2022/07/19 09:11:48;;;;;;;4.55;1.83;;;39.30;48.20;;;;;;4955145;28;20258;-66
2022/07/19 09:14:15;;;;;;;2.00;1.38;;;39.20;47.90;;;;;;4953954;28;20287;-67
2022/07/19 09:17:11;;;;;;;2.35;1.88;;;39.60;47.00;;;;;;4954921;29;20329;-67
2022/07/19 09:19:39;;;;;;;3.08;2.05;;;39.30;47.30;;;;;;4953187;29;20178;-67
2022/07/19 09:22:07;;;;;;;3.58;1.63;;;39.00;49.40;;;;;;4954706;28;20732;-67
2022/07/19 09:24:39;;;;;;;4.68;2.38;;;38.20;48.90;;;;;;4954939;28;20198;-67
2022/07/19 09:27:10;;;;;;;2.72;1.50;;;38.50;46.90;;;;;;4954868;29;20189;-66
2022/07/19 09:29:38;;;;;;;2.78;1.70;;;38.50;50.40;;;;;;4953517;28;20174;-66
2022/07/19 09:32:06;;;;;;;5.70;1.95;;;38.40;50.00;;;;;;4954663;28;20222;-66
2022/07/19 09:34:33;;;;;;;6.85;2.00;;;38.60;47.00;;;;;;4954745;28;20170;-66
2022/07/19 09:37:14;;;;;;;8.65;1.98;;;38.20;47.40;;;;;;4954774;28;20189;-67
2022/07/19 09:39:46;;;;;;;4.88;1.80;;;37.40;48.40;;;;;;4956220;28;20650;-66
2022/07/19 09:42:14;;;;;;;4.22;1.85;;;37.40;48.70;;;;;;4973801;28;20200;-66
2022/07/19 09:44:40;;;;;;;3.25;2.00;;;38.10;48.60;;;;;;4972635;28;20182;-66
2022/07/19 09:47:06;;;;;;;4.30;1.75;;;37.90;47.10;;;;;;4973873;28;20178;-66
2022/07/19 09:49:32;;;;;;;4.05;1.90;;;38.20;50.50;;;;;;4973181;28;20262;-67
2022/07/19 09:51:58;;;;;;;2.40;1.73;;;38.30;47.30;;;;;;4973717;28;20214;-66
2022/07/19 09:54:25;;;;;;;4.82;2.10;;;38.60;47.90;;;;;;4973645;28;20239;-67
2022/07/19 09:56:52;;;;;;;7.70;2.05;;;38.90;47.60;;;;;;4973638;28;20220;-67
2022/07/19 09:59:19;;;;;;;4.30;1.83;;;38.90;48.10;;;;;;4973240;28;20185;-67
2022/07/19 10:01:50;;;;;;;2.45;1.50;;;38.90;43.80;;;;;;4973547;28;20222;-67
2022/07/19 10:04:18;;;;;;;10.95;2.00;;;37.10;46.40;;;;;;4973566;28;20212;-67
2022/07/19 10:06:45;;;;;;;4.97;1.83;;;37.20;45.80;;;;;;4973569;28;20622;-66
2022/07/19 10:09:16;;;;;;;6.85;1.85;;;37.20;48.80;;;;;;4969279;28;20589;-67
2022/07/19 10:11:42;;;;;;;2.92;1.70;;;36.70;46.10;;;;;;4954118;28;20328;-67
2022/07/19 10:14:09;;;;;;;7.53;2.45;;;35.80;47.50;;;;;;4954707;28;20261;-66
2022/07/19 10:16:46;;;;;;;3.10;1.75;;;36.10;50.00;;;;;;4955224;29;20178;-67
2022/07/19 10:19:38;;;;;;;2.63;1.85;;;35.90;48.80;;;;;;4953457;28;20177;-67
2022/07/19 10:22:05;;;;;;;3.83;2.17;;;36.30;48.50;;;;;;4953794;28;20218;-67
2022/07/19 10:24:43;;;;;;;6.72;2.17;;;35.90;48.10;;;;;;4954063;28;20562;-66
2022/07/19 10:27:09;;;;;;;3.72;1.70;;;36.00;51.50;;;;;;4954047;28;20173;-66
2022/07/19 10:29:35;;;;;;;4.13;1.90;;;36.60;51.80;;;;;;4953311;28;20258;-67
2022/07/19 10:32:09;;;;;;;3.90;1.90;;;36.70;51.20;;;;;;4953924;28;20789;-66
2022/07/19 10:34:35;;;;;;;2.55;2.13;;;36.80;50.50;;;;;;4953951;28;20166;-67
2022/07/19 10:37:01;;;;;;;2.28;1.88;;;36.10;47.70;;;;;;4953992;28;20229;-66
2022/07/19 10:39:31;;;;;;;4.65;2.00;;;35.60;47.10;;;;;;4953682;28;20257;-67
2022/07/19 10:42:09;;;;;;;2.78;1.73;;;35.70;46.10;;;;;;4975721;28;20212;-67
2022/07/19 10:44:56;;;;;;;3.08;2.00;;;35.80;47.70;;;;;;4977191;28;20178;-67
2022/07/19 10:47:45;;;;;;;4.82;1.95;;;34.80;48.40;;;;;;4976960;28;20174;-67
2022/07/19 10:50:14;;;;;;;4.60;2.22;;;34.60;47.60;;;;;;4976956;28;20174;-67
2022/07/19 10:52:42;;;;;;;5.25;2.03;;;34.80;49.80;;;;;;4976869;28;20197;-67
2022/07/19 10:55:27;;;;;;;5.28;1.95;;;34.50;49.40;;;;;;4976965;28;20181;-66
2022/07/19 10:58:04;;;;;;;4.03;1.73;;;34.40;49.30;;;;;;4976402;28;20173;-67
2022/07/19 11:00:32;;;;;;;3.13;1.98;;;35.10;49.10;;;;;;4976679;28;20192;-67
2022/07/19 11:03:19;;;;;;;4.32;1.90;;;35.40;50.30;;;;;;4976657;28;20205;-66
2022/07/19 11:05:47;;;;;;;9.93;1.92;;;35.80;49.50;;;;;;4976878;28;20169;-66
2022/07/19 11:08:13;;;;;;;3.90;2.00;;;35.70;48.60;;;;;;4976003;28;20228;-66
2022/07/19 11:10:38;;;;;;;9.85;2.33;;;35.60;52.70;;;;;;4961130;28;20707;-66
2022/07/19 11:13:05;;;;;;;4.72;1.80;;;35.80;52.30;;;;;;4957417;28;20253;-66
2022/07/19 11:15:31;;;;;;;5.47;2.00;;;35.90;46.50;;;;;;4957244;28;20309;-66
2022/07/19 11:18:03;;;;;;;4.00;1.83;;;35.50;47.60;;;;;;4956675;28;20654;-66
2022/07/19 11:20:32;;;;;;;5.43;2.15;;;35.90;47.90;;;;;;4957214;28;20171;-66
2022/07/19 11:22:59;;;;;;;6.50;1.63;;;34.80;48.00;;;;;;4956934;28;20206;-66
2022/07/19 11:25:28;;;;;;;2.45;1.95;;;35.50;47.20;;;;;;4955904;28;20183;-67
2022/07/19 11:27:55;;;;;;;2.40;1.98;;;35.90;47.90;;;;;;4956432;28;20250;-67
2022/07/19 11:30:22;;;;;;;6.07;1.52;;;36.20;47.10;;;;;;4955772;28;20713;-66
2022/07/19 11:33:06;;;;;;;4.28;2.20;;;35.10;48.20;;;;;;4956985;29;20517;-66
2022/07/19 11:35:32;;;;;;;4.05;1.90;;;35.70;50.30;;;;;;4956953;28;20178;-66
2022/07/19 11:38:00;;;;;;;7.32;2.35;;;36.30;47.40;;;;;;4956264;28;20593;-67
2022/07/19 11:40:33;;;;;;;2.38;2.05;;;36.30;49.00;;;;;;4964998;28;20209;-66
2022/07/19 11:42:58;;;;;;;4.82;2.55;;;35.70;46.30;;;;;;4976130;28;20268;-66
2022/07/19 11:45:26;;;;;;;4.35;1.60;;;36.30;46.90;;;;;;4976076;28;20178;-66
2022/07/19 11:47:53;;;;;;;4.75;2.35;;;35.90;46.60;;;;;;4975468;28;20182;-67
2022/07/19 11:50:22;;;;;;;6.22;2.17;;;36.20;47.80;;;;;;4976353;28;20177;-67
2022/07/19 11:52:47;;;;;;;3.25;1.77;;;36.20;48.40;;;;;;4974887;28;20182;-66
2022/07/19 11:55:15;;;;;;;4.28;2.10;;;36.80;51.90;;;;;;4975856;28;20174;-67
2022/07/19 11:57:40;;;;;;;5.03;2.00;;;37.10;47.80;;;;;;4975386;28;20181;-67
2022/07/19 12:00:09;;;;;;;9.73;1.90;;;37.20;50.90;;;;;;4974642;28;20186;-67
2022/07/19 12:03:02;;;;;;;5.30;2.00;;;37.30;48.80;;;;;;4974339;28;20220;-66
2022/07/19 12:05:28;;;;;;;3.17;2.25;;;37.20;47.10;;;;;;4975723;28;20188;-66
2022/07/19 12:07:57;;;;;;;5.72;2.03;;;37.00;48.00;;;;;;4975133;28;20185;-66
2022/07/19 12:10:43;;;;;;;4.80;2.10;;;36.80;51.80;;;;;;4962165;28;20261;-66
2022/07/19 12:13:27;;;;;;;6.80;2.05;;;36.40;49.30;;;;;;4956332;29;20197;-66
2022/07/19 12:15:55;;;;;;;6.50;2.15;;;35.40;47.70;;;;;;4956073;29;20254;-66
2022/07/19 12:18:59;;;;;;;9.15;2.20;;;35.70;50.00;;;;;;4955531;28;20265;-66
2022/07/19 12:21:41;;;;;;;6.35;1.90;;;35.40;48.60;;;;;;4953161;28;20338;-66
2022/07/19 12:24:24;;;;;;;6.50;2.33;;;35.40;52.90;;;;;;4954305;29;20209;-66
2022/07/19 12:26:55;;;;;;;10.43;2.25;;;35.60;52.20;;;;;;4954441;29;20185;-66
2022/07/19 12:29:23;;;;;;;5.30;1.98;;;35.70;51.20;;;;;;4954659;29;20245;-66
2022/07/19 12:31:51;;;;;;;11.07;2.50;;;36.10;51.80;;;;;;4955381;28;20221;-66
2022/07/19 12:34:18;;;;;;;5.35;2.13;;;35.90;47.80;;;;;;4955365;28;20697;-66
2022/07/19 12:36:44;;;;;;;2.95;1.70;;;35.10;47.50;;;;;;4955334;28;20218;-66
2022/07/19 12:39:30;;;;;;;5.55;2.50;;;35.00;47.80;;;;;;4954699;28;20193;-66
2022/07/19 12:41:58;;;;;;;13.30;2.55;;;34.90;48.60;;;;;;4934201;29;20211;-67
2022/07/19 12:44:24;;;;;;;6.72;2.28;;;34.90;48.40;;;;;;4934802;29;20207;-66
2022/07/19 12:46:49;;;;;;;4.65;2.13;;;35.50;50.60;;;;;;4936113;29;20175;-66
2022/07/19 12:49:15;;;;;;;5.57;1.85;;;35.80;48.60;;;;;;4935318;29;20226;-66
2022/07/19 12:51:43;;;;;;;6.10;2.55;;;36.10;50.00;;;;;;4936022;29;20206;-67
2022/07/19 12:54:09;;;;;;;8.00;2.03;;;35.80;47.40;;;;;;4935831;29;20179;-66
2022/07/19 12:56:35;;;;;;;6.70;2.17;;;36.20;50.50;;;;;;4935934;29;20175;-66
2022/07/19 13:01:45;;;;;;;2.70;2.05;;;35.60;46.90;;;;;;4935606;29;20233;-66
2022/07/19 13:04:11;;;;;;;5.00;2.40;;;35.60;47.10;;;;;;4935318;29;20246;-66
2022/07/19 13:06:36;;;;;;;2.53;2.17;;;35.80;49.00;;;;;;4935773;29;20234;-66
2022/07/19 13:09:02;;;;;;;10.35;2.33;;;35.70;46.30;;;;;;4939603;28;20612;-66
2022/07/19 13:11:27;;;;;;;5.25;2.35;;;36.00;49.10;;;;;;4973944;28;20243;-66
2022/07/19 13:13:53;;;;;;;4.15;2.60;;;35.90;46.20;;;;;;4973995;28;20182;-66
2022/07/19 13:16:20;;;;;;;3.30;1.80;;;36.00;49.50;;;;;;4972561;28;20185;-66
2022/07/19 13:18:47;;;;;;;3.65;2.33;;;36.10;51.80;;;;;;4973121;28;20177;-66
2022/07/19 13:21:12;;;;;;;6.47;2.83;;;36.40;49.30;;;;;;4973902;28;20292;-66
2022/07/19 13:23:38;;;;;;;3.00;1.90;;;36.60;46.40;;;;;;4973446;28;20292;-66
2022/07/19 13:26:03;;;;;;;3.00;2.00;;;36.40;48.50;;;;;;4973888;28;20308;-66
2022/07/19 13:28:29;;;;;;;7.18;2.15;;;37.00;50.20;;;;;;4972951;28;20257;-66
2022/07/19 13:30:54;;;;;;;5.72;2.40;;;37.40;46.50;;;;;;4972894;28;20197;-66
2022/07/19 13:33:20;;;;;;;7.40;2.17;;;37.50;46.10;;;;;;4973132;28;20617;-66
2022/07/19 13:35:45;;;;;;;5.47;2.25;;;36.70;46.60;;;;;;4973688;28;20180;-66
2022/07/19 13:38:11;;;;;;;11.00;2.15;;;36.40;46.50;;;;;;4972927;28;20196;-66
2022/07/19 13:40:38;;;;;;;4.05;2.15;;;36.60;45.90;;;;;;4963987;28;20210;-66
2022/07/19 13:43:03;;;;;;;6.53;2.03;;;36.40;46.00;;;;;;4959242;28;20202;-66
2022/07/19 13:45:29;;;;;;;2.63;1.73;;;36.50;46.40;;;;;;4954132;28;20170;-66
2022/07/19 13:47:54;;;;;;;4.22;1.75;;;36.30;45.80;;;;;;4954328;28;20209;-65
2022/07/19 13:50:20;;;;;;;3.88;2.55;;;36.00;46.40;;;;;;4954142;28;20268;-65
2022/07/19 13:52:45;;;;;;;7.13;2.15;;;35.60;47.40;;;;;;4953621;28;20209;-65
2022/07/19 13:55:11;;;;;;;3.55;2.00;;;36.10;47.20;;;;;;4954039;28;20185;-65
2022/07/19 13:57:36;;;;;;;9.63;2.10;;;36.40;46.20;;;;;;4954199;28;20182;-65
2022/07/19 14:00:05;;;;;;;5.63;2.25;;;36.70;48.60;;;;;;4954027;28;20181;-66
2022/07/19 14:02:31;;;;;;;4.68;2.50;;;37.30;46.50;;;;;;4953950;28;20202;-66
2022/07/19 14:04:56;;;;;;;9.18;2.50;;;37.80;45.90;;;;;;4954267;28;20171;-66
2022/07/19 14:07:22;;;;;;;3.58;1.98;;;38.20;47.30;;;;;;4954168;28;20174;-67
2022/07/19 14:09:47;;;;;;;6.40;2.33;;;38.10;42.80;;;;;;4955597;28;20669;-82
2022/07/19 14:12:13;;;;;;;6.68;2.45;;;37.20;44.80;;;;;;4952389;28;20252;-82
2022/07/19 14:14:38;;;;;;;4.70;1.85;;;37.50;45.20;;;;;;4954444;29;20269;-82
2022/07/19 14:17:04;;;;;;;9.23;1.83;;;37.30;44.40;;;;;;4955460;28;20200;-82
2022/07/19 14:19:29;;;;;;;3.75;2.15;;;36.60;45.30;;;;;;4958552;28;20649;-82
2022/07/19 14:21:57;;;;;;;6.90;2.03;;;36.30;46.20;;;;;;4956108;28;20814;-82
2022/07/19 14:24:22;;;;;;;12.50;2.70;;;36.20;46.30;;;;;;4959332;28;20202;-82
2022/07/19 14:26:49;;;;;;;6.70;2.55;;;36.00;47.30;;;;;;4954059;29;20187;-82
2022/07/19 14:29:14;;;;;;;10.50;2.05;;;35.60;46.40;;;;;;4955037;29;20174;-81
2022/07/19 14:31:40;;;;;;;4.05;2.13;;;35.10;48.80;;;;;;4971172;28;20580;-81
2022/07/19 14:34:06;;;;;;;4.70;2.42;;;35.30;47.70;;;;;;4958560;28;20183;-82
2022/07/19 14:36:31;;;;;;;3.75;2.35;;;35.20;48.10;;;;;;4954974;28;20197;-82
2022/07/19 14:38:57;;;;;;;7.93;2.42;;;35.30;47.30;;;;;;4955098;29;20178;-81
2022/07/19 14:41:22;;;;;;;4.65;2.35;;;35.30;47.50;;;;;;4954498;28;20577;-82
2022/07/19 14:43:48;;;;;;;10.60;2.40;;;35.60;47.90;;;;;;4952921;28;20213;-82
2022/07/19 14:46:13;;;;;;;3.25;2.30;;;35.60;46.10;;;;;;4952926;28;20177;-82
2022/07/19 14:48:39;;;;;;;5.07;2.10;;;36.10;45.80;;;;;;4954706;28;20635;-81
2022/07/19 14:51:04;;;;;;;2.20;1.88;;;36.50;46.10;;;;;;4955741;28;20281;-82
2022/07/19 14:53:30;;;;;;;5.47;2.55;;;36.20;45.00;;;;;;4955444;28;20190;-82
2022/07/19 14:55:55;;;;;;;3.38;2.10;;;35.80;47.50;;;;;;4955772;28;20204;-81
2022/07/19 14:58:21;;;;;;;4.22;2.40;;;36.30;46.30;;;;;;4955652;28;20269;-81
2022/07/19 15:00:46;;;;;;;3.83;2.28;;;35.40;45.50;;;;;;4955503;28;20209;-82
2022/07/19 15:03:12;;;;;;;6.78;1.85;;;35.70;47.10;;;;;;4947713;28;20209;-81
2022/07/19 15:05:37;;;;;;;2.70;2.30;;;36.10;46.10;;;;;;4954809;28;20182;-80
2022/07/19 15:08:03;;;;;;;6.38;2.88;;;35.50;47.50;;;;;;4954686;29;20643;-82
2022/07/19 15:10:29;;;;;;;4.07;2.00;;;36.00;50.20;;;;;;4955463;28;20182;-82
2022/07/19 15:12:54;;;;;;;6.07;2.55;;;36.40;46.10;;;;;;4957656;28;20186;-82
2022/07/19 15:15:20;;;;;;;5.30;2.42;;;36.30;45.10;;;;;;4962925;28;20325;-77
2022/07/19 15:17:45;;;;;;;13.63;2.70;;;36.30;47.50;;;;;;4963084;29;20186;-81
2022/07/19 15:20:11;;;;;;;5.57;2.05;;;36.40;48.50;;;;;;4966675;28;20217;-80
2022/07/19 15:22:37;;;;;;;4.03;2.10;;;36.30;44.40;;;;;;4965250;28;20245;-78
2022/07/19 15:25:05;;;;;;;6.93;2.00;;;36.00;46.80;;;;;;4963858;28;20277;-79
2022/07/19 15:27:31;;;;;;;3.65;2.38;;;36.30;45.90;;;;;;4966616;28;20226;-80
2022/07/19 15:29:56;;;;;;;4.68;2.28;;;36.30;44.90;;;;;;4967146;28;20178;-80
2022/07/19 15:32:22;;;;;;;4.68;2.33;;;36.40;45.50;;;;;;4964950;28;20202;-79
2022/07/19 15:34:47;;;;;;;8.40;2.08;;;36.60;45.20;;;;;;4964412;28;20706;-79
2022/07/19 15:37:13;;;;;;;3.13;2.25;;;36.50;45.10;;;;;;4978444;28;20184;-79
2022/07/19 15:39:38;;;;;;;4.28;2.33;;;35.80;45.90;;;;;;4966178;28;20186;-79
2022/07/19 15:42:04;;;;;;;5.50;2.25;;;35.50;46.70;;;;;;4973450;28;20245;-79
2022/07/19 15:44:29;;;;;;;4.25;2.30;;;35.40;46.20;;;;;;4970521;28;20206;-79
2022/07/19 15:46:55;;;;;;;4.55;2.33;;;35.60;47.20;;;;;;4967526;28;20260;-80
2022/07/19 15:49:20;;;;;;;4.50;2.47;;;35.60;46.40;;;;;;4976791;28;20205;-80
2022/07/19 15:51:46;;;;;;;6.00;2.50;;;35.30;47.10;;;;;;4967403;28;20206;-80
2022/07/19 15:54:11;;;;;;;6.03;2.60;;;35.10;47.60;;;;;;4961561;28;20190;-79
2022/07/19 15:56:37;;;;;;;10.32;2.45;;;35.10;49.50;;;;;;4956236;28;20600;-77
2022/07/19 15:59:02;;;;;;;6.85;2.50;;;35.20;51.50;;;;;;4958005;28;20186;-78
2022/07/19 16:01:28;;;;;;;6.00;2.50;;;35.50;47.90;;;;;;4968639;28;20207;-78
2022/07/19 16:03:54;;;;;;;7.43;2.33;;;35.50;50.30;;;;;;4958159;28;20230;-79
2022/07/19 16:06:20;;;;;;;9.65;2.47;;;35.30;48.70;;;;;;4971399;28;20216;-78
2022/07/19 16:08:45;;;;;;;9.60;2.08;;;35.20;46.90;;;;;;4972898;28;20268;-79
2022/07/19 16:11:11;;;;;;;8.75;2.40;;;35.20;50.40;;;;;;4966991;28;20209;-78
2022/07/19 16:13:39;;;;;;;4.45;2.28;;;35.00;51.60;;;;;;4956132;28;20217;-78
2022/07/19 16:16:05;;;;;;;2.50;2.03;;;35.20;50.10;;;;;;4974382;28;20186;-81
2022/07/19 16:18:31;;;;;;;4.38;2.65;;;35.20;47.90;;;;;;4977450;28;20237;-80
2022/07/19 16:23:32;;;;;;;3.25;2.33;;;35.10;47.10;;;;;;5049215;23;20646;-80
2022/07/19 16:25:57;;;;;;;5.43;2.40;;;35.10;47.30;;;;;;4997501;28;20193;-79
2022/07/19 16:28:24;;;;;;;3.38;2.45;;;34.80;47.50;;;;;;4993467;28;20227;-79
2022/07/19 16:30:49;;;;;;;4.30;2.25;;;34.70;48.40;;;;;;4993488;28;20211;-80
2022/07/19 16:33:15;;;;;;;4.70;2.30;;;34.30;49.50;;;;;;4975446;28;20182;-80
2022/07/19 16:35:41;;;;;;;8.48;2.63;;;34.30;49.30;;;;;;4973954;28;20724;-78
2022/07/19 16:38:09;;;;;;;7.75;2.65;;;34.50;49.20;;;;;;4977897;28;20701;-78
2022/07/19 16:40:35;;;;;;;9.43;2.28;;;34.10;48.20;;;;;;4979794;28;20193;-79
2022/07/19 16:43:00;;;;;;;3.47;2.63;;;34.20;48.00;;;;;;4974897;28;20210;-79
2022/07/19 16:45:26;;;;;;;6.07;2.33;;;34.30;48.30;;;;;;4975608;28;20205;-80
2022/07/19 16:47:51;;;;;;;4.47;2.10;;;34.10;48.70;;;;;;4976877;28;20185;-79
2022/07/19 16:50:17;;;;;;;7.57;2.00;;;33.70;49.20;;;;;;4974900;28;20730;-79
2022/07/19 16:52:42;;;;;;;6.95;2.60;;;33.60;49.40;;;;;;4974568;28;20197;-79
2022/07/19 16:55:08;;;;;;;2.95;2.17;;;33.50;49.40;;;;;;4974035;28;20197;-80
2022/07/19 16:57:34;;;;;;;3.45;2.10;;;33.50;49.70;;;;;;4974313;28;20214;-79
2022/07/19 16:59:59;;;;;;;4.80;2.38;;;33.40;49.30;;;;;;4975164;28;20190;-81
2022/07/19 17:02:25;;;;;;;6.15;2.50;;;33.40;50.10;;;;;;4974340;28;20207;-79
2022/07/19 17:04:50;;;;;;;5.40;2.22;;;33.30;50.00;;;;;;4974962;28;20349;-79
2022/07/19 17:07:17;;;;;;;4.23;2.10;;;33.20;49.80;;;;;;4974221;28;20184;-79
2022/07/19 17:09:43;;;;;;;7.10;2.10;;;33.20;49.70;;;;;;4974809;28;20634;-79
2022/07/19 17:12:08;;;;;;;7.33;2.70;;;33.10;48.90;;;;;;4979257;28;20207;-79
2022/07/19 17:14:34;;;;;;;6.70;2.10;;;33.30;50.10;;;;;;4982458;28;20554;-80
2022/07/19 17:17:00;;;;;;;10.77;2.90;;;33.40;50.20;;;;;;4982884;28;20196;-78
2022/07/19 17:19:25;;;;;;;6.77;1.90;;;33.40;50.60;;;;;;4972939;28;20184;-79
2022/07/19 17:21:51;;;;;;;3.70;2.40;;;33.30;51.90;;;;;;4968676;28;20253;-79
2022/07/19 17:24:17;;;;;;;5.00;2.50;;;33.30;51.80;;;;;;4972789;28;20205;-78
2022/07/19 17:26:42;;;;;;;9.20;2.43;;;33.20;52.10;;;;;;4974588;28;20205;-78
2022/07/19 17:29:08;;;;;;;6.40;2.70;;;33.10;52.70;;;;;;4966094;28;20262;-80
2022/07/19 17:31:33;;;;;;;5.87;2.20;;;33.00;53.20;;;;;;4955452;28;20186;-79
2022/07/19 17:33:59;;;;;;;6.27;2.40;;;32.70;52.40;;;;;;4974176;28;20186;-79
2022/07/19 17:36:25;;;;;;;6.70;2.60;;;32.50;53.60;;;;;;4974781;28;20216;-79
2022/07/19 17:38:50;;;;;;;10.87;2.53;;;32.30;53.90;;;;;;4973649;28;20273;-79
2022/07/19 17:41:17;;;;;;;7.87;2.43;;;32.20;53.80;;;;;;4977812;28;20619;-77
2022/07/19 17:43:43;;;;;;;6.70;3.03;;;32.00;55.40;;;;;;4974968;28;20946;-76
2022/07/19 17:46:09;;;;;;;9.20;2.73;;;31.90;54.70;;;;;;4968480;28;20448;-77
2022/07/19 17:48:35;;;;;;;9.07;2.80;;;31.90;54.60;;;;;;4959168;28;20921;-76
2022/07/19 17:51:00;;;;;;;9.03;2.80;;;31.70;56.70;;;;;;4973774;28;20557;-77
2022/07/19 17:53:26;;;;;;;6.10;2.80;;;31.50;58.80;;;;;;4974352;28;20504;-78
2022/07/19 17:55:51;;;;;;;6.83;2.20;;;31.40;56.20;;;;;;4973930;28;20280;-78
2022/07/19 17:58:17;;;;;;;3.00;2.37;;;31.30;58.90;;;;;;4973878;28;20185;-76
2022/07/19 18:00:43;;;;;;;4.10;2.13;;;31.10;57.20;;;;;;4974110;28;20590;-76
2022/07/19 18:03:08;;;;;;;6.70;2.70;;;31.00;56.60;;;;;;4974572;28;20280;-76
2022/07/19 18:05:37;;;;;;;10.23;2.17;;;30.90;57.30;;;;;;4974822;28;20178;-76
2022/07/19 18:08:04;;;;;;;5.47;2.47;;;30.70;58.60;;;;;;4974327;28;20638;-76